Time;durP1;ratioP1;P1;durP2;ratioP2;P2;SDS_P1;SDS_P2;PMS_P1;PMS_P2;Temp;Humidity;BMP_temperature;BMP_pressure;BME280_temperature;BME280_humidity;BME280_pressure;Samples;Min_cycle;Max_cycle;Signal;HPM_P1;HPM_P2
2022/04/16 00:00:08;;;;;;;4.68;4.05;;;;;;;13.18;48.11;96211.34;5014035;28;20036;-66
2022/04/16 00:02:34;;;;;;;5.05;4.03;;;;;;;13.13;47.52;96193.53;5014224;28;20034;-66
2022/04/16 00:04:59;;;;;;;4.63;4.30;;;;;;;13.24;47.58;96199.50;5012778;28;20466;-66
2022/04/16 00:07:24;;;;;;;4.90;4.50;;;;;;;13.25;47.66;96201.09;5014384;28;20053;-67
2022/04/16 00:10:05;;;;;;;4.80;4.40;;;;;;;13.22;47.78;96215.84;5014223;28;20509;-66
2022/04/16 00:12:31;;;;;;;4.65;4.25;;;;;;;12.93;47.85;96216.03;5012811;28;20053;-66
2022/04/16 00:14:57;;;;;;;4.43;4.05;;;;;;;12.62;48.40;96214.94;5014066;28;20084;-66
2022/04/16 00:17:22;;;;;;;4.88;4.47;;;;;;;12.34;48.97;96208.69;5014145;28;20069;-66
2022/04/16 00:19:48;;;;;;;4.63;4.20;;;;;;;12.86;47.83;96204.16;5013880;28;20045;-66
2022/04/16 00:22:13;;;;;;;4.70;4.30;;;;;;;12.78;47.68;96181.56;5013506;28;20030;-66
2022/04/16 00:24:40;;;;;;;5.20;4.30;;;;;;;12.47;48.78;96213.28;5013811;28;20470;-66
2022/04/16 00:27:07;;;;;;;4.45;4.07;;;;;;;12.87;48.22;96203.84;5012626;28;20055;-66
2022/04/16 00:29:34;;;;;;;4.40;4.00;;;;;;;12.76;47.85;96191.75;5012533;28;20037;-66
2022/04/16 00:32:00;;;;;;;5.20;4.70;;;;;;;12.10;49.43;96193.50;5013288;28;20030;-66
2022/04/16 00:34:25;;;;;;;5.13;4.72;;;;;;;12.31;49.02;96188.69;5012372;28;20032;-66
2022/04/16 00:36:51;;;;;;;6.20;4.07;;;;;;;12.02;50.01;96207.47;5013831;28;20072;-66
2022/04/16 00:39:16;;;;;;;4.57;4.18;;;;;;;12.43;49.19;96186.38;5013897;28;20029;-68
2022/04/16 00:41:43;;;;;;;4.78;4.38;;;;;;;12.65;48.91;96193.78;5013224;28;20678;-68
2022/04/16 00:44:09;;;;;;;5.22;4.07;;;;;;;12.34;49.37;96195.34;5012329;28;20026;-65
2022/04/16 00:46:35;;;;;;;4.57;4.18;;;;;;;12.76;48.12;96189.09;5012161;28;20030;-65
2022/04/16 00:49:00;;;;;;;4.72;4.32;;;;;;;12.55;48.66;96177.16;5013480;28;20097;-67
2022/04/16 00:51:27;;;;;;;4.63;4.32;;;;;;;12.28;49.58;96186.59;5011955;28;20056;-66
2022/04/16 00:54:11;;;;;;;4.53;4.13;;;;;;;12.47;49.37;96195.38;5012295;28;20022;-65
2022/04/16 00:56:38;;;;;;;4.90;4.40;;;;;;;12.80;48.50;96182.09;5013431;28;20022;-67
2022/04/16 00:59:06;;;;;;;4.63;4.22;;;;;;;12.65;48.46;96182.31;5013205;28;20033;-67
2022/04/16 01:01:32;;;;;;;5.07;4.60;;;;;;;12.73;48.49;96187.78;5012746;28;20048;-67
2022/04/16 01:03:57;;;;;;;4.28;3.97;;;;;;;12.90;47.92;96178.44;5013277;28;20029;-67
2022/04/16 01:06:23;;;;;;;4.68;4.28;;;;;;;12.66;47.84;96144.66;5013054;28;20030;-67
2022/04/16 01:08:48;;;;;;;4.25;3.95;;;;;;;12.26;49.22;96159.41;5012930;28;20466;-65
2022/04/16 01:11:15;;;;;;;4.82;3.85;;;;;;;12.04;50.47;96176.00;5012701;28;20022;-67
2022/04/16 01:13:41;;;;;;;4.68;4.28;;;;;;;11.89;50.91;96187.66;5012893;28;20034;-66
2022/04/16 01:16:07;;;;;;;4.25;3.95;;;;;;;12.05;51.14;96190.13;5013291;28;20446;-67
2022/04/16 01:18:33;;;;;;;4.25;3.88;;;;;;;12.31;50.11;96177.22;5011981;28;20113;-67
2022/04/16 01:21:02;;;;;;;4.53;4.05;;;;;;;12.41;49.99;96185.09;5011647;28;20038;-66
2022/04/16 01:23:28;;;;;;;4.20;3.90;;;;;;;12.11;50.66;96184.44;5013054;28;20053;-67
2022/04/16 01:25:53;;;;;;;4.70;4.28;;;;;;;12.07;50.94;96174.63;5011738;28;20025;-66
2022/04/16 01:28:18;;;;;;;4.97;4.32;;;;;;;11.41;52.79;96193.00;5011582;28;20572;-67
2022/04/16 01:30:44;;;;;;;4.40;4.00;;;;;;;11.47;51.97;96172.41;5012469;28;20209;-68
2022/04/16 01:33:10;;;;;;;5.30;4.88;;;;;;;11.71;51.67;96183.03;5012821;28;20033;-67
2022/04/16 01:35:36;;;;;;;4.95;4.55;;;;;;;12.16;50.64;96179.03;5012630;28;20113;-64
2022/04/16 01:38:07;;;;;;;4.32;4.03;;;;;;;12.05;50.58;96182.13;5012683;28;20481;-66
2022/04/16 01:40:33;;;;;;;4.90;4.45;;;;;;;12.08;50.73;96189.53;5012320;28;20047;-67
2022/04/16 01:42:58;;;;;;;4.85;4.35;;;;;;;11.79;51.12;96178.97;5012421;28;20034;-67
2022/04/16 01:45:24;;;;;;;4.63;4.22;;;;;;;11.50;52.17;96182.50;5011763;28;20026;-68
2022/04/16 01:47:50;;;;;;;4.78;4.38;;;;;;;11.71;52.20;96185.72;5011006;28;20489;-67
2022/04/16 01:50:16;;;;;;;4.82;4.43;;;;;;;12.07;50.76;96171.94;5010831;28;20679;-67
2022/04/16 01:52:42;;;;;;;4.18;3.78;;;;;;;12.17;50.43;96166.47;5012474;28;20109;-66
2022/04/16 01:55:09;;;;;;;5.00;4.50;;;;;;;11.90;50.51;96164.44;5011223;28;20112;-67
2022/04/16 01:57:34;;;;;;;4.82;4.43;;;;;;;12.18;50.58;96192.06;5012144;28;20026;-67
2022/04/16 02:00:00;;;;;;;4.32;3.92;;;;;;;11.89;50.97;96187.66;5012073;28;20477;-66
2022/04/16 02:02:26;;;;;;;4.88;4.50;;;;;;;11.89;51.10;96187.66;5010932;28;20117;-67
2022/04/16 02:04:51;;;;;;;5.25;4.55;;;;;;;11.05;53.72;96173.91;5010689;28;20057;-66
2022/04/16 02:07:17;;;;;;;4.85;4.45;;;;;;;11.71;52.30;96161.72;5012247;28;20033;-68
2022/04/16 02:09:42;;;;;;;6.47;4.15;;;;;;;12.16;51.21;96181.69;5010804;28;20084;-67
2022/04/16 02:12:08;;;;;;;5.72;4.30;;;;;;;11.71;51.54;96181.16;5011522;28;20037;-67
2022/04/16 02:14:34;;;;;;;5.15;4.65;;;;;;;11.08;54.20;96176.00;5011914;28;20043;-67
2022/04/16 02:17:00;;;;;;;5.05;4.55;;;;;;;11.33;52.90;96164.31;5010599;28;20467;-65
2022/04/16 02:19:26;;;;;;;4.38;4.07;;;;;;;11.82;52.05;96189.88;5011876;28;20481;-67
2022/04/16 02:21:52;;;;;;;4.55;4.22;;;;;;;10.89;53.76;96173.25;5011394;28;20029;-67
2022/04/16 02:24:18;;;;;;;5.05;4.60;;;;;;;11.17;53.25;96187.63;5011718;28;20374;-67
2022/04/16 02:26:44;;;;;;;4.95;4.45;;;;;;;10.56;55.66;96177.53;5011518;28;20115;-67
2022/04/16 02:29:10;;;;;;;4.70;4.30;;;;;;;10.27;56.71;96180.13;5011743;28;20034;-65
2022/04/16 02:31:37;;;;;;;5.13;4.72;;;;;;;10.83;54.71;96186.88;5011073;28;20037;-65
2022/04/16 02:34:05;;;;;;;4.88;4.47;;;;;;;10.95;53.95;96176.66;5010254;28;20028;-66
2022/04/16 02:36:31;;;;;;;5.05;4.65;;;;;;;11.23;54.10;96180.38;5010323;28;20049;-65
2022/04/16 02:38:57;;;;;;;5.88;5.38;;;;;;;11.07;53.79;96165.66;5011513;28;20022;-65
2022/04/16 02:41:24;;;;;;;5.65;5.15;;;;;;;10.91;54.21;96176.44;5011096;28;20125;-66
2022/04/16 02:43:49;;;;;;;5.88;5.43;;;;;;;11.14;53.54;96166.88;5011550;28;20044;-66
2022/04/16 02:49:00;;;;;;;6.53;5.90;;;;;;;10.79;55.00;96176.00;5010661;28;20064;-65
2022/04/16 02:51:26;;;;;;;6.75;6.15;;;;;;;11.09;53.67;96164.28;5010445;28;20529;-65
2022/04/16 02:53:51;;;;;;;6.30;5.28;;;;;;;10.32;56.20;96164.13;5011424;28;20057;-65
2022/04/16 02:56:17;;;;;;;6.15;5.65;;;;;;;11.02;54.27;96177.13;5009805;28;20057;-67
2022/04/16 02:58:43;;;;;;;6.75;6.15;;;;;;;11.11;54.03;96170.13;5009846;28;20497;-68
2022/04/16 03:01:08;;;;;;;6.18;5.68;;;;;;;11.25;53.45;96183.56;5010726;28;20077;-67
2022/04/16 03:03:33;;;;;;;7.53;6.72;;;;;;;10.97;54.37;96177.19;5011382;28;20037;-67
2022/04/16 03:05:59;;;;;;;7.93;6.40;;;;;;;10.96;53.34;96154.31;5011268;28;20026;-67
2022/04/16 03:08:25;;;;;;;7.47;6.70;;;;;;;11.25;53.23;96180.88;5011134;28;20029;-67
2022/04/16 03:10:54;;;;;;;7.97;7.28;;;;;;;11.23;53.05;96183.06;5009627;28;20025;-67
2022/04/16 03:13:20;;;;;;;8.20;7.50;;;;;;;11.05;54.45;96181.88;5011217;28;20174;-66
2022/04/16 03:18:30;;;;;;;8.57;7.68;;;;;;;11.10;53.43;96173.06;5011275;28;20117;-67
2022/04/16 03:20:57;;;;;;;7.65;6.90;;;;;;;11.11;53.70;96175.47;5009296;28;20468;-67
2022/04/16 03:23:23;;;;;;;8.05;7.35;;;;;;;10.90;54.20;96180.19;5011039;28;20097;-67
2022/04/16 03:25:48;;;;;;;8.77;7.88;;;;;;;10.99;53.99;96177.69;5011065;28;20116;-67
2022/04/16 03:28:14;;;;;;;8.70;7.82;;;;;;;11.07;52.87;96182.41;5011053;28;20026;-66
2022/04/16 03:30:40;;;;;;;8.55;7.63;;;;;;;11.03;53.39;96177.94;5009018;28;20667;-63
2022/04/16 03:33:06;;;;;;;9.40;8.40;;;;;;;10.79;53.86;96173.34;5009471;28;20033;-63
2022/04/16 03:35:32;;;;;;;9.70;8.25;;;;;;;10.84;54.18;96170.63;5009752;28;20398;-63
2022/04/16 03:37:58;;;;;;;9.35;7.50;;;;;;;10.83;54.06;96169.03;5009546;28;20026;-65
2022/04/16 03:40:29;;;;;;;9.57;8.68;;;;;;;10.71;54.55;96181.16;5009180;28;20609;-66
2022/04/16 03:42:58;;;;;;;9.60;8.27;;;;;;;10.56;55.49;96176.72;5009577;28;20026;-65
2022/04/16 03:45:29;;;;;;;9.70;7.75;;;;;;;10.63;55.08;96177.19;5010815;28;20129;-65
2022/04/16 03:47:55;;;;;;;9.90;8.90;;;;;;;10.48;55.90;96182.63;5009593;28;20109;-65
2022/04/16 03:50:22;;;;;;;9.38;8.48;;;;;;;10.31;55.77;96135.94;5008986;28;20022;-65
2022/04/16 03:52:49;;;;;;;9.55;8.55;;;;;;;10.55;55.09;96157.31;5009531;28;20126;-66
2022/04/16 04:00:45;;;;;;;12.10;9.63;;;;;;;10.43;56.79;96186.13;5008156;23;20077;-67
2022/04/16 04:03:11;;;;;;;11.32;9.18;;;;;;;10.10;57.04;96188.44;4989934;28;20030;-66
2022/04/16 04:05:37;;;;;;;12.90;8.77;;;;;;;9.97;57.71;96153.69;4989887;28;20026;-67
2022/04/16 04:08:07;;;;;;;10.55;9.45;;;;;;;10.14;56.65;96170.09;4991124;28;20018;-66
2022/04/16 04:10:32;;;;;;;12.27;10.00;;;;;;;10.29;56.75;96174.53;4992939;28;20030;-66
2022/04/16 04:12:58;;;;;;;11.27;10.05;;;;;;;10.21;56.68;96181.19;4994539;28;20048;-66
2022/04/16 04:15:32;;;;;;;11.75;10.25;;;;;;;10.05;57.36;96148.59;4994719;28;20106;-67
2022/04/16 04:18:01;;;;;;;11.18;9.82;;;;;;;9.63;58.97;96183.63;4993952;28;20433;-69
2022/04/16 04:20:28;;;;;;;11.18;9.93;;;;;;;9.98;57.38;96149.94;4992750;28;20037;-68
2022/04/16 04:22:54;;;;;;;10.65;9.57;;;;;;;9.34;56.94;96046.16;4994651;28;20113;-70
2022/04/16 04:25:20;;;;;;;11.00;10.00;;;;;;;10.45;57.05;96218.56;4993227;28;20085;-69
2022/04/16 04:27:45;;;;;;;11.77;10.57;;;;;;;10.24;57.40;96195.84;4994568;28;20022;-66
2022/04/16 04:30:11;;;;;;;11.63;10.48;;;;;;;10.41;57.06;96213.00;4992779;28;20026;-66
2022/04/16 04:32:37;;;;;;;13.90;11.27;;;;;;;10.03;57.19;96147.28;4994442;28;20030;-66
2022/04/16 04:35:03;;;;;;;12.00;9.90;;;;;;;10.53;55.91;96190.56;4994171;28;20378;-66
2022/04/16 04:37:29;;;;;;;11.75;10.57;;;;;;;9.44;57.41;96105.63;4994375;28;20026;-65
2022/04/16 04:39:54;;;;;;;12.88;10.80;;;;;;;10.15;57.51;96215.00;4992974;28;20081;-65
2022/04/16 04:42:24;;;;;;;12.32;10.50;;;;;;;10.24;56.84;96188.66;4994065;28;20084;-65
2022/04/16 04:44:50;;;;;;;10.55;9.55;;;;;;;10.07;57.05;96137.69;4993455;28;20034;-65
2022/04/16 04:47:15;;;;;;;11.20;10.02;;;;;;;10.38;56.51;96165.66;4993146;28;20034;-65
2022/04/16 04:49:40;;;;;;;11.55;9.95;;;;;;;10.45;56.18;96151.28;4994170;28;20022;-66
2022/04/16 04:52:06;;;;;;;11.95;9.98;;;;;;;10.02;57.31;96188.22;4993720;28;20122;-66
2022/04/16 04:54:32;;;;;;;13.45;9.63;;;;;;;10.27;56.17;96134.13;4994077;28;20034;-66
2022/04/16 04:56:57;;;;;;;10.23;9.23;;;;;;;9.96;56.58;96110.38;4993930;28;20034;-66
2022/04/16 04:59:22;;;;;;;10.48;9.10;;;;;;;10.50;56.30;96183.16;4993155;28;20041;-64
2022/04/16 05:01:48;;;;;;;10.23;9.23;;;;;;;10.59;56.40;96206.22;4992232;28;20080;-66
2022/04/16 05:04:13;;;;;;;9.38;8.48;;;;;;;10.90;55.27;96193.50;4993955;28;20105;-64
2022/04/16 05:06:38;;;;;;;9.75;8.77;;;;;;;10.94;55.90;96210.47;4993992;28;20391;-65
2022/04/16 05:09:04;;;;;;;11.00;8.32;;;;;;;11.38;54.95;96203.41;4993693;28;20498;-67
2022/04/16 05:11:29;;;;;;;9.13;8.32;;;;;;;11.62;53.85;96200.75;4993223;28;20054;-64
2022/04/16 05:13:54;;;;;;;8.95;8.05;;;;;;;10.62;54.06;96091.28;4991634;28;20053;-66
2022/04/16 05:16:20;;;;;;;9.27;8.35;;;;;;;10.57;56.12;96239.50;4993731;28;20045;-66
2022/04/16 05:18:45;;;;;;;8.82;8.02;;;;;;;10.41;56.79;96210.34;4993705;28;20459;-66
2022/04/16 05:21:10;;;;;;;9.40;8.40;;;;;;;10.74;56.45;96188.56;4992976;28;20188;-64
2022/04/16 05:23:39;;;;;;;8.43;7.63;;;;;;;11.57;54.73;96216.81;4992230;28;20037;-66
2022/04/16 05:26:05;;;;;;;9.13;8.23;;;;;;;12.22;53.40;96233.09;4992284;28;20033;-69
2022/04/16 05:28:31;;;;;;;10.63;8.63;;;;;;;12.56;52.93;96221.44;4993631;28;20033;-67
2022/04/16 05:30:58;;;;;;;9.00;7.90;;;;;;;12.70;50.75;96254.31;4992181;28;20406;-70
2022/04/16 05:36:08;;;;;;;8.27;7.47;;;;;;;12.56;50.31;96171.50;4993429;28;20092;-70
2022/04/16 05:38:34;;;;;;;7.65;6.95;;;;;;;13.23;49.57;96221.97;4993212;28;20034;-71
2022/04/16 05:41:00;;;;;;;8.90;8.10;;;;;;;12.68;49.70;96241.25;4992829;28;20363;-69
2022/04/16 05:43:26;;;;;;;7.80;7.00;;;;;;;12.09;49.93;96143.16;4991899;28;20027;-68
2022/04/16 05:45:52;;;;;;;8.90;8.00;;;;;;;12.03;51.02;96193.09;4991299;28;20027;-68
2022/04/16 05:48:17;;;;;;;8.13;7.35;;;;;;;11.40;53.43;96212.69;4993225;28;20105;-68
2022/04/16 05:50:44;;;;;;;8.50;7.65;;;;;;;12.53;51.57;96184.63;4992574;28;20158;-69
2022/04/16 05:53:14;;;;;;;7.63;6.90;;;;;;;12.61;50.31;96175.97;4993056;28;20026;-68
2022/04/16 05:55:43;;;;;;;8.43;7.63;;;;;;;12.94;49.76;96211.47;4992798;28;20061;-68
2022/04/16 05:58:09;;;;;;;8.10;7.30;;;;;;;13.70;48.94;96246.78;4992951;28;20070;-77
2022/04/16 06:00:36;;;;;;;7.93;7.22;;;;;;;14.20;48.21;96281.66;4991836;28;20136;-69
2022/04/16 06:03:03;;;;;;;7.80;7.10;;;;;;;12.28;47.87;95953.72;4991648;28;20165;-70
2022/04/16 06:05:31;;;;;;;7.30;6.55;;;;;;;13.57;47.10;96116.59;4992610;28;20030;-71
2022/04/16 06:07:57;;;;;;;7.80;7.10;;;;;;;11.93;48.73;96047.38;4992774;28;20044;-70
2022/04/16 06:10:22;;;;;;;8.18;7.38;;;;;;;12.26;51.29;96268.78;4992360;28;20491;-72
2022/04/16 06:12:48;;;;;;;7.03;6.40;;;;;;;11.66;49.36;95973.34;4992486;28;20475;-71
2022/04/16 06:15:14;;;;;;;8.35;7.65;;;;;;;13.70;48.33;96196.78;4991943;28;20037;-70
2022/04/16 06:17:40;;;;;;;7.88;7.05;;;;;;;13.05;49.33;96225.44;4992844;28;20023;-70
2022/04/16 06:20:07;;;;;;;7.90;7.20;;;;;;;13.04;50.12;96197.16;4991613;28;20030;-73
2022/04/16 06:22:33;;;;;;;7.25;6.60;;;;;;;13.52;48.25;96153.03;4992008;28;20482;-68
2022/04/16 06:24:58;;;;;;;7.40;6.70;;;;;;;12.91;46.93;95987.78;4991716;28;20061;-68
2022/04/16 06:27:23;;;;;;;7.43;6.68;;;;;;;13.41;45.90;95980.59;4993092;28;20019;-69
2022/04/16 06:29:49;;;;;;;9.48;6.90;;;;;;;13.33;44.73;96002.69;4992117;28;20032;-69
2022/04/16 06:32:14;;;;;;;6.78;6.18;;;;;;;14.60;44.68;96170.25;4991699;28;20026;-70
2022/04/16 06:34:41;;;;;;;7.22;6.70;;;;;;;11.34;50.40;96075.31;4991558;28;20118;-71
2022/04/16 06:37:06;;;;;;;7.45;6.75;;;;;;;14.59;47.55;96257.03;4992877;28;20487;-68
2022/04/16 06:39:32;;;;;;;7.40;6.80;;;;;;;14.36;45.58;96130.34;4990256;28;20117;-68
2022/04/16 06:41:57;;;;;;;6.88;6.38;;;;;;;12.90;47.51;96130.38;4991799;28;20730;-69
2022/04/16 06:44:23;;;;;;;7.03;6.32;;;;;;;13.46;48.13;96271.00;4991205;28;20022;-68
2022/04/16 06:46:50;;;;;;;6.38;5.78;;;;;;;13.60;47.61;96164.88;4992328;28;20026;-68
2022/04/16 06:49:15;;;;;;;6.72;6.15;;;;;;;14.12;47.24;96261.72;4991897;28;20069;-68
2022/04/16 06:51:41;;;;;;;7.20;6.60;;;;;;;14.45;46.79;96264.28;4991612;28;20034;-68
2022/04/16 06:54:06;;;;;;;7.53;6.75;;;;;;;14.26;45.69;96214.34;4991765;28;20018;-68
2022/04/16 06:56:32;;;;;;;6.88;6.28;;;;;;;14.77;44.37;96180.28;4990600;28;20034;-67
2022/04/16 06:58:57;;;;;;;6.95;6.25;;;;;;;14.84;44.71;96269.03;4991860;28;20097;-69
2022/04/16 07:01:22;;;;;;;6.68;6.18;;;;;;;15.55;43.50;96269.97;4989448;28;20030;-68
2022/04/16 07:03:48;;;;;;;6.63;6.05;;;;;;;14.37;45.01;96279.16;4992047;28;20015;-64
2022/04/16 07:06:13;;;;;;;6.60;6.00;;;;;;;13.16;48.39;96218.88;4992221;28;20034;-71
2022/04/16 07:08:39;;;;;;;5.75;5.30;;;;;;;14.27;46.54;96268.66;4992123;28;20030;-68
2022/04/16 07:11:04;;;;;;;6.40;5.90;;;;;;;15.24;45.00;96274.53;4991708;28;20042;-67
2022/04/16 07:13:29;;;;;;;6.72;6.22;;;;;;;14.48;45.14;96258.34;4991872;28;20026;-67
2022/04/16 07:15:55;;;;;;;7.22;6.63;;;;;;;14.98;44.14;96245.66;4990943;28;20129;-67
2022/04/16 07:18:20;;;;;;;6.95;6.45;;;;;;;15.63;43.42;96276.53;4991676;28;20074;-68
2022/04/16 07:20:47;;;;;;;6.80;6.03;;;;;;;14.86;44.75;96274.13;4991182;28;20026;-68
2022/04/16 07:23:12;;;;;;;6.70;6.18;;;;;;;13.17;49.44;96282.69;4990465;28;20030;-67
2022/04/16 07:25:38;;;;;;;6.47;5.95;;;;;;;13.68;46.98;96244.41;4990457;28;20030;-66
2022/04/16 07:28:04;;;;;;;6.47;5.97;;;;;;;14.43;46.00;96275.25;4991744;28;20037;-67
2022/04/16 07:30:29;;;;;;;6.68;6.13;;;;;;;14.31;45.75;96291.06;4990317;28;20034;-66
2022/04/16 07:32:55;;;;;;;6.57;5.85;;;;;;;13.53;47.28;96266.09;4991706;28;20153;-67
2022/04/16 07:35:20;;;;;;;6.60;6.10;;;;;;;13.01;47.95;96212.69;4991770;28;20076;-67
2022/04/16 07:37:48;;;;;;;6.55;6.00;;;;;;;13.97;47.36;96296.81;4991622;28;20026;-67
2022/04/16 07:40:14;;;;;;;7.70;6.03;;;;;;;12.63;49.88;96273.34;4991046;28;20117;-67
2022/04/16 07:42:39;;;;;;;7.05;6.45;;;;;;;13.75;48.12;96265.41;4990376;28;20110;-66
2022/04/16 07:45:06;;;;;;;6.57;6.03;;;;;;;11.60;52.10;96258.84;4993785;28;20913;-66
2022/04/16 07:47:31;;;;;;;6.63;6.13;;;;;;;13.04;49.86;96306.66;4995170;28;20035;-66
2022/04/16 07:49:56;;;;;;;6.85;6.13;;;;;;;13.03;49.93;96279.16;4993998;28;20022;-67
2022/04/16 07:52:24;;;;;;;7.07;6.47;;;;;;;12.26;52.18;96308.81;4994847;28;20037;-66
2022/04/16 07:54:52;;;;;;;6.93;6.40;;;;;;;13.23;49.37;96280.75;4995093;28;20058;-66
2022/04/16 07:57:18;;;;;;;6.78;6.18;;;;;;;12.88;50.08;96325.59;4995245;28;20049;-67
2022/04/16 07:59:43;;;;;;;7.00;6.22;;;;;;;13.06;50.33;96316.00;4994999;28;20479;-68
2022/04/16 08:02:08;;;;;;;6.85;6.25;;;;;;;13.02;49.15;96257.00;4992454;28;20042;-68
2022/04/16 08:04:34;;;;;;;7.50;6.80;;;;;;;12.38;49.89;96249.69;4993391;28;20027;-67
2022/04/16 08:06:59;;;;;;;8.00;7.20;;;;;;;12.87;50.42;96272.47;4993733;28;20065;-66
2022/04/16 08:09:25;;;;;;;6.88;6.28;;;;;;;12.69;50.31;96252.72;4994662;28;20034;-68
2022/04/16 08:11:50;;;;;;;7.75;7.15;;;;;;;12.49;50.96;96259.94;4994547;28;20057;-66
2022/04/16 08:14:15;;;;;;;7.30;6.70;;;;;;;12.93;49.59;96252.63;4993503;28;20089;-67
2022/04/16 08:16:41;;;;;;;7.15;6.55;;;;;;;13.18;49.68;96302.19;4994113;28;20052;-67
2022/04/16 08:19:06;;;;;;;7.05;6.50;;;;;;;13.61;48.38;96256.56;4994813;28;20694;-67
2022/04/16 08:21:34;;;;;;;7.28;6.68;;;;;;;14.32;46.82;96252.50;4994365;28;20049;-67
2022/04/16 08:24:12;;;;;;;6.78;6.28;;;;;;;14.00;46.84;96275.63;4994671;28;20117;-67
2022/04/16 08:26:38;;;;;;;6.25;5.75;;;;;;;14.27;48.19;96306.13;4993378;28;20014;-68
2022/04/16 08:29:03;;;;;;;7.03;6.50;;;;;;;14.80;46.46;96292.19;4994430;28;20491;-67
2022/04/16 08:31:29;;;;;;;6.47;5.88;;;;;;;15.32;46.30;96324.75;4993151;28;20071;-69
2022/04/16 08:33:55;;;;;;;7.20;6.70;;;;;;;15.89;45.26;96324.94;4994283;28;20033;-68
2022/04/16 08:36:20;;;;;;;6.80;6.20;;;;;;;15.57;44.14;96324.13;4992947;28;20105;-71
2022/04/16 08:38:45;;;;;;;6.45;5.82;;;;;;;15.54;43.91;96283.72;4992855;28;20030;-70
2022/04/16 08:41:11;;;;;;;6.97;6.47;;;;;;;16.47;43.03;96288.19;4993243;28;20242;-68
2022/04/16 08:43:38;;;;;;;6.78;6.18;;;;;;;15.93;42.72;96274.94;4994547;28;20026;-68
2022/04/16 08:46:04;;;;;;;6.95;6.45;;;;;;;15.61;43.82;96310.91;4992558;28;20518;-74
2022/04/16 08:48:31;;;;;;;6.45;5.90;;;;;;;15.26;43.70;96264.31;4993364;28;20121;-70
2022/04/16 08:50:57;;;;;;;6.88;6.38;;;;;;;15.52;44.04;96320.78;4993975;28;20483;-71
2022/04/16 08:53:24;;;;;;;7.20;6.20;;;;;;;15.25;43.77;96239.41;4993023;28;20038;-71
2022/04/16 08:55:49;;;;;;;6.97;6.18;;;;;;;15.18;43.22;96238.25;4993883;28;20027;-69
2022/04/16 08:58:15;;;;;;;7.10;6.50;;;;;;;15.60;42.87;96330.75;4989424;28;20049;-69
2022/04/16 09:00:40;;;;;;;7.20;6.60;;;;;;;15.00;44.11;96313.16;4976108;28;20035;-73
2022/04/16 09:03:06;;;;;;;6.78;6.18;;;;;;;14.88;44.21;96288.78;4994134;28;20030;-70
2022/04/16 09:05:32;;;;;;;6.80;6.18;;;;;;;15.60;43.71;96311.97;4994182;28;20034;-72
2022/04/16 09:07:59;;;;;;;6.97;6.43;;;;;;;15.32;43.82;96333.56;4994218;28;20022;-71
2022/04/16 09:10:29;;;;;;;6.85;6.35;;;;;;;15.32;44.39;96336.25;4993433;28;20026;-69
2022/04/16 09:12:56;;;;;;;7.50;6.90;;;;;;;15.42;43.88;96307.63;4993311;28;20073;-73
2022/04/16 09:15:23;;;;;;;6.72;6.22;;;;;;;14.87;44.84;96340.78;4992060;28;20122;-71
2022/04/16 09:18:03;;;;;;;7.07;6.57;;;;;;;14.14;45.77;96301.59;4991624;28;20022;-67
2022/04/16 09:20:33;;;;;;;6.80;6.30;;;;;;;13.99;46.51;96346.25;4992049;28;20042;-68
2022/04/16 09:23:00;;;;;;;6.18;5.68;;;;;;;13.20;47.70;96318.69;4993429;28;20479;-72
2022/04/16 09:25:29;;;;;;;7.20;6.60;;;;;;;12.54;51.31;96349.84;4992654;28;20033;-70
2022/04/16 09:27:54;;;;;;;7.40;6.70;;;;;;;12.80;49.69;96264.06;4992175;28;20081;-71
2022/04/16 09:30:28;;;;;;;6.22;5.72;;;;;;;13.56;47.62;96278.03;4992608;28;20026;-76
2022/04/16 09:32:56;;;;;;;6.30;5.88;;;;;;;14.04;47.36;96335.47;4993564;28;20073;-74
2022/04/16 09:35:27;;;;;;;6.30;5.80;;;;;;;14.62;46.09;96306.50;4991676;28;20033;-73
2022/04/16 09:37:57;;;;;;;6.13;5.63;;;;;;;14.98;44.97;96344.81;4991523;28;20090;-74
2022/04/16 09:40:30;;;;;;;5.95;5.55;;;;;;;15.50;44.61;96347.88;4992134;28;20088;-73
2022/04/16 09:42:58;;;;;;;5.78;5.38;;;;;;;15.47;44.07;96297.56;4993075;28;20034;-71
2022/04/16 09:45:24;;;;;;;6.18;5.65;;;;;;;16.09;42.71;96348.56;4984165;28;20101;-73
2022/04/16 09:47:52;;;;;;;5.65;5.25;;;;;;;16.10;41.48;96352.81;4975800;28;20181;-73
2022/04/16 09:50:19;;;;;;;5.60;5.07;;;;;;;15.52;42.53;96343.03;4992503;28;20042;-75
2022/04/16 09:52:49;;;;;;;5.65;5.20;;;;;;;16.61;41.95;96321.88;4992875;28;20034;-73
2022/04/16 09:55:15;;;;;;;5.50;5.10;;;;;;;16.84;41.60;96330.63;4992069;28;20027;-74
2022/04/16 09:57:41;;;;;;;5.45;4.88;;;;;;;17.62;40.66;96333.28;4991620;28;20026;-74
2022/04/16 10:00:07;;;;;;;5.00;4.70;;;;;;;17.08;39.59;96334.75;4992499;28;20060;-72
2022/04/16 10:02:34;;;;;;;5.40;5.00;;;;;;;16.24;41.38;96344.69;4992711;28;20092;-71
2022/04/16 10:05:00;;;;;;;5.72;5.32;;;;;;;16.57;40.88;96314.75;4992850;28;20495;-73
2022/04/16 10:07:26;;;;;;;5.00;4.60;;;;;;;16.49;39.83;96310.94;4991767;28;20057;-73
2022/04/16 10:09:53;;;;;;;5.20;4.80;;;;;;;16.59;40.89;96361.69;4983947;28;20030;-72
2022/04/16 10:15:11;;;;;;;4.30;3.90;;;;;;;17.01;39.57;96362.13;4973376;28;20034;-69
2022/04/16 10:17:42;;;;;;;4.18;3.88;;;;;;;17.37;39.22;96299.16;4977058;28;20041;-69
2022/04/16 10:20:11;;;;;;;4.13;3.88;;;;;;;17.56;37.93;96358.78;4970719;28;20018;-69
2022/04/16 10:22:38;;;;;;;4.32;4.03;;;;;;;16.91;37.32;96289.84;4972707;28;20142;-70
2022/04/16 10:25:05;;;;;;;3.92;3.63;;;;;;;17.01;38.32;96324.47;4971074;28;20475;-72
2022/04/16 10:27:32;;;;;;;4.28;3.97;;;;;;;17.24;37.43;96386.16;4972286;28;20023;-69
2022/04/16 10:30:10;;;;;;;3.70;3.50;;;;;;;15.13;38.98;96223.06;4972315;28;20031;-68
2022/04/16 10:32:41;;;;;;;4.00;3.70;;;;;;;15.15;40.00;96292.44;4972051;28;20106;-69
2022/04/16 10:35:17;;;;;;;4.43;4.13;;;;;;;14.53;40.59;96191.28;4972078;28;20034;-68
2022/04/16 10:37:48;;;;;;;3.70;3.50;;;;;;;14.50;40.12;96109.72;4972220;28;20035;-71
2022/04/16 10:40:23;;;;;;;3.70;3.40;;;;;;;14.19;41.04;96165.03;4970480;28;20040;-68
2022/04/16 10:42:50;;;;;;;4.65;4.25;;;;;;;13.95;45.75;96372.00;4972148;28;20098;-71
2022/04/16 10:45:16;;;;;;;4.85;4.55;;;;;;;13.10;47.30;96311.63;4972127;28;20026;-70
2022/04/16 10:47:42;;;;;;;4.20;3.90;;;;;;;13.11;44.76;96168.22;4971785;28;20193;-70
2022/04/16 10:50:13;;;;;;;4.60;4.30;;;;;;;15.27;43.55;96403.38;4970341;28;20050;-72
2022/04/16 10:52:38;;;;;;;4.28;3.97;;;;;;;13.94;42.61;96153.78;4972006;28;20050;-71
2022/04/16 10:55:05;;;;;;;4.57;4.22;;;;;;;13.71;43.80;96176.97;4971871;28;20653;-71
2022/04/16 10:57:30;;;;;;;5.18;4.68;;;;;;;14.01;47.89;96351.31;4972110;28;20523;-70
2022/04/16 10:59:56;;;;;;;5.85;5.35;;;;;;;12.81;49.76;96359.88;4971877;28;20170;-70
2022/04/16 11:02:27;;;;;;;5.97;5.47;;;;;;;11.89;53.62;96406.28;4970288;28;20399;-69
2022/04/16 11:05:01;;;;;;;6.50;5.95;;;;;;;12.39;53.55;96388.16;4970818;28;20375;-69
2022/04/16 11:07:35;;;;;;;6.20;5.60;;;;;;;11.38;55.75;96379.22;4971917;28;20036;-70
2022/04/16 11:10:02;;;;;;;5.97;5.57;;;;;;;11.60;54.36;96278.31;4971581;28;20110;-69
2022/04/16 11:12:29;;;;;;;5.65;5.15;;;;;;;12.05;53.56;96408.81;4971727;28;20027;-70
2022/04/16 11:14:55;;;;;;;5.65;5.15;;;;;;;12.38;52.33;96399.09;4971972;28;20071;-70
2022/04/16 11:17:20;;;;;;;4.95;4.55;;;;;;;12.38;50.79;96383.09;4972159;28;20027;-70
2022/04/16 11:19:48;;;;;;;5.78;5.38;;;;;;;14.57;46.80;96396.56;4975698;28;20070;-70
2022/04/16 11:22:15;;;;;;;5.68;5.28;;;;;;;15.36;43.20;96308.84;4975428;28;20516;-70
2022/04/16 11:24:41;;;;;;;5.30;4.90;;;;;;;13.73;45.08;96164.09;4975786;28;20027;-70
2022/04/16 11:35:24;;;;;;;5.93;5.53;;;;;;;16.24;38.83;96155.97;4975601;28;20046;-69
2022/04/16 11:37:56;;;;;;;6.10;5.60;;;;;;;16.62;39.49;96221.38;4975457;28;20030;-70
2022/04/16 11:40:21;;;;;;;5.75;5.32;;;;;;;16.84;39.87;96354.03;4973662;28;20395;-69
2022/04/16 11:42:47;;;;;;;5.80;5.40;;;;;;;15.21;40.25;96099.06;4975348;28;20041;-70
2022/04/16 11:45:14;;;;;;;5.50;5.10;;;;;;;16.08;39.61;96212.78;4975295;28;20111;-70
2022/04/16 11:47:39;;;;;;;4.82;4.53;;;;;;;16.48;39.42;96193.06;4975400;28;20034;-69
2022/04/16 11:50:07;;;;;;;5.72;5.32;;;;;;;16.79;38.49;96201.81;4975057;28;20099;-70
2022/04/16 11:52:34;;;;;;;5.13;4.72;;;;;;;16.16;38.23;96129.91;4975182;28;20618;-70